sensor_id;sensor_type;location;lat;lon;timestamp;pressure;altitude;pressure_sealevel;temperature;humidity
6433;BME280;3249;42.690;23.260;2023-05-02T00:01:27;94565.31;;;10.72;100.00
6433;BME280;3249;42.690;23.260;2023-05-02T00:03:59;94534.47;;;10.66;100.00
6433;BME280;3249;42.690;23.260;2023-05-02T00:06:29;94567.34;;;10.95;100.00
6433;BME280;3249;42.690;23.260;2023-05-02T00:08:59;94566.47;;;11.01;100.00
6433;BME280;3249;42.690;23.260;2023-05-02T00:11:29;94569.22;;;11.06;100.00
6433;BME280;3249;42.690;23.260;2023-05-02T00:13:58;94573.75;;;11.10;100.00
6433;BME280;3249;42.690;23.260;2023-05-02T00:16:27;94545.53;;;10.97;100.00
6433;BME280;3249;42.690;23.260;2023-05-02T00:18:59;94571.97;;;11.11;100.00
6433;BME280;3249;42.690;23.260;2023-05-02T00:21:29;94569.94;;;11.13;100.00
6433;BME280;3249;42.690;23.260;2023-05-02T00:23:59;94576.56;;;11.27;100.00
6433;BME280;3249;42.690;23.260;2023-05-02T00:26:28;94587.84;;;11.26;100.00
6433;BME280;3249;42.690;23.260;2023-05-02T00:28:58;94566.88;;;11.22;100.00
6433;BME280;3249;42.690;23.260;2023-05-02T00:31:28;94587.81;;;11.50;100.00
6433;BME280;3249;42.690;23.260;2023-05-02T00:34:00;94594.47;;;11.64;100.00
6433;BME280;3249;42.690;23.260;2023-05-02T00:36:30;94486.50;;;10.96;100.00
6433;BME280;3249;42.690;23.260;2023-05-02T00:39:00;94558.53;;;11.45;100.00
6433;BME280;3249;42.690;23.260;2023-05-02T00:41:30;94594.41;;;11.71;100.00
6433;BME280;3249;42.690;23.260;2023-05-02T00:43:59;94605.94;;;11.44;100.00
6433;BME280;3249;42.690;23.260;2023-05-02T00:46:28;94610.81;;;11.52;100.00
6433;BME280;3249;42.690;23.260;2023-05-02T00:49:00;94609.47;;;11.25;100.00
6433;BME280;3249;42.690;23.260;2023-05-02T00:51:32;94608.69;;;11.24;100.00
6433;BME280;3249;42.690;23.260;2023-05-02T00:54:02;94603.13;;;11.03;100.00
6433;BME280;3249;42.690;23.260;2023-05-02T00:56:32;94603.00;;;10.91;100.00
6433;BME280;3249;42.690;23.260;2023-05-02T00:59:02;94603.81;;;10.92;100.00
6433;BME280;3249;42.690;23.260;2023-05-02T01:01:42;94602.97;;;10.98;100.00
6433;BME280;3249;42.690;23.260;2023-05-02T01:04:26;94595.34;;;11.09;100.00
6433;BME280;3249;42.690;23.260;2023-05-02T01:07:11;94603.31;;;11.26;100.00
6433;BME280;3249;42.690;23.260;2023-05-02T01:09:51;94593.81;;;11.02;100.00
6433;BME280;3249;42.690;23.260;2023-05-02T01:12:27;94583.63;;;11.13;100.00
6433;BME280;3249;42.690;23.260;2023-05-02T01:15:05;94588.56;;;11.15;100.00
6433;BME280;3249;42.690;23.260;2023-05-02T01:17:35;94585.00;;;11.16;100.00
6433;BME280;3249;42.690;23.260;2023-05-02T01:20:12;94583.16;;;11.23;100.00
6433;BME280;3249;42.690;23.260;2023-05-02T01:22:42;94582.56;;;11.21;100.00
6433;BME280;3249;42.690;23.260;2023-05-02T01:25:21;94572.16;;;11.09;100.00
6433;BME280;3249;42.690;23.260;2023-05-02T01:28:00;94566.16;;;11.15;100.00
6433;BME280;3249;42.690;23.260;2023-05-02T01:30:37;94571.56;;;11.07;100.00
6433;BME280;3249;42.690;23.260;2023-05-02T01:33:10;94566.81;;;11.11;100.00
6433;BME280;3249;42.690;23.260;2023-05-02T01:35:41;94569.41;;;11.04;100.00
6433;BME280;3249;42.690;23.260;2023-05-02T01:38:13;94577.72;;;11.06;100.00
6433;BME280;3249;42.690;23.260;2023-05-02T01:40:44;94577.38;;;11.03;100.00
6433;BME280;3249;42.690;23.260;2023-05-02T01:43:15;94578.41;;;11.20;100.00
6433;BME280;3249;42.690;23.260;2023-05-02T01:45:50;94577.25;;;11.16;100.00
6433;BME280;3249;42.690;23.260;2023-05-02T01:48:22;94587.28;;;11.24;100.00
6433;BME280;3249;42.690;23.260;2023-05-02T01:50:53;94577.81;;;11.18;100.00
6433;BME280;3249;42.690;23.260;2023-05-02T01:53:24;94582.88;;;11.06;100.00
6433;BME280;3249;42.690;23.260;2023-05-02T01:55:54;94581.25;;;11.12;100.00
6433;BME280;3249;42.690;23.260;2023-05-02T01:58:26;94577.41;;;10.96;100.00
6433;BME280;3249;42.690;23.260;2023-05-02T02:01:01;94568.16;;;10.89;100.00
6433;BME280;3249;42.690;23.260;2023-05-02T02:03:31;94579.06;;;10.91;100.00
6433;BME280;3249;42.690;23.260;2023-05-02T02:06:00;94568.13;;;10.95;100.00
6433;BME280;3249;42.690;23.260;2023-05-02T02:08:31;94567.91;;;10.97;100.00
6433;BME280;3249;42.690;23.260;2023-05-02T02:11:07;94568.06;;;11.02;100.00
6433;BME280;3249;42.690;23.260;2023-05-02T02:13:45;94576.16;;;11.05;100.00
6433;BME280;3249;42.690;23.260;2023-05-02T02:16:23;94578.75;;;11.05;100.00
6433;BME280;3249;42.690;23.260;2023-05-02T02:18:54;94564.19;;;10.93;100.00
6433;BME280;3249;42.690;23.260;2023-05-02T02:21:26;94570.91;;;10.94;100.00
6433;BME280;3249;42.690;23.260;2023-05-02T02:24:01;94558.22;;;10.92;100.00
6433;BME280;3249;42.690;23.260;2023-05-02T02:26:31;94578.22;;;10.97;100.00
6433;BME280;3249;42.690;23.260;2023-05-02T02:29:01;94585.13;;;10.96;100.00
6433;BME280;3249;42.690;23.260;2023-05-02T02:31:34;94573.66;;;10.99;100.00
6433;BME280;3249;42.690;23.260;2023-05-02T02:34:04;94578.41;;;10.95;100.00
6433;BME280;3249;42.690;23.260;2023-05-02T02:36:38;94593.47;;;10.98;100.00
6433;BME280;3249;42.690;23.260;2023-05-02T02:39:19;94591.44;;;11.00;100.00
6433;BME280;3249;42.690;23.260;2023-05-02T02:42:00;94597.50;;;10.88;100.00
6433;BME280;3249;42.690;23.260;2023-05-02T02:44:38;94598.28;;;10.88;100.00
6433;BME280;3249;42.690;23.260;2023-05-02T02:47:20;94597.16;;;10.78;100.00
6433;BME280;3249;42.690;23.260;2023-05-02T02:50:03;94591.13;;;10.66;100.00
6433;BME280;3249;42.690;23.260;2023-05-02T02:52:48;94569.28;;;10.13;100.00
6433;BME280;3249;42.690;23.260;2023-05-02T02:55:27;94604.41;;;10.32;100.00
6433;BME280;3249;42.690;23.260;2023-05-02T02:58:01;94604.09;;;10.15;100.00
6433;BME280;3249;42.690;23.260;2023-05-02T03:00:32;94606.66;;;10.15;100.00
6433;BME280;3249;42.690;23.260;2023-05-02T03:03:06;94608.47;;;10.08;100.00
6433;BME280;3249;42.690;23.260;2023-05-02T03:05:36;94610.22;;;10.01;100.00
6433;BME280;3249;42.690;23.260;2023-05-02T03:08:06;94588.44;;;9.66;100.00
6433;BME280;3249;42.690;23.260;2023-05-02T03:10:35;94613.50;;;9.84;100.00
6433;BME280;3249;42.690;23.260;2023-05-02T03:13:04;94617.50;;;9.53;100.00
6433;BME280;3249;42.690;23.260;2023-05-02T03:15:51;94611.63;;;9.27;100.00
6433;BME280;3249;42.690;23.260;2023-05-02T03:18:31;94620.31;;;9.06;100.00
6433;BME280;3249;42.690;23.260;2023-05-02T03:21:02;94622.69;;;9.27;100.00
6433;BME280;3249;42.690;23.260;2023-05-02T03:23:31;94590.47;;;9.25;100.00
6433;BME280;3249;42.690;23.260;2023-05-02T03:26:01;94614.34;;;9.51;100.00
6433;BME280;3249;42.690;23.260;2023-05-02T03:28:31;94625.81;;;9.42;100.00
6433;BME280;3249;42.690;23.260;2023-05-02T03:31:02;94621.50;;;9.36;100.00
6433;BME280;3249;42.690;23.260;2023-05-02T03:33:38;94626.19;;;9.66;100.00
6433;BME280;3249;42.690;23.260;2023-05-02T03:36:07;94624.19;;;9.74;100.00
6433;BME280;3249;42.690;23.260;2023-05-02T03:38:38;94623.53;;;9.85;100.00
6433;BME280;3249;42.690;23.260;2023-05-02T03:41:11;94629.31;;;9.81;100.00
6433;BME280;3249;42.690;23.260;2023-05-02T03:43:41;94624.06;;;10.20;100.00
6433;BME280;3249;42.690;23.260;2023-05-02T03:46:10;94635.97;;;10.52;100.00
6433;BME280;3249;42.690;23.260;2023-05-02T03:48:45;94630.44;;;10.79;100.00
6433;BME280;3249;42.690;23.260;2023-05-02T03:51:17;94641.66;;;11.16;100.00
6433;BME280;3249;42.690;23.260;2023-05-02T03:53:50;94649.84;;;11.55;100.00
6433;BME280;3249;42.690;23.260;2023-05-02T03:56:19;94643.25;;;11.41;100.00
6433;BME280;3249;42.690;23.260;2023-05-02T03:59:02;94641.88;;;11.99;100.00
6433;BME280;3249;42.690;23.260;2023-05-02T04:01:31;94645.41;;;12.23;100.00
6433;BME280;3249;42.690;23.260;2023-05-02T04:04:04;94641.25;;;12.22;100.00
6433;BME280;3249;42.690;23.260;2023-05-02T04:06:39;94645.31;;;12.11;100.00
6433;BME280;3249;42.690;23.260;2023-05-02T04:09:09;94650.13;;;12.08;100.00
6433;BME280;3249;42.690;23.260;2023-05-02T04:11:45;94641.69;;;11.83;100.00
6433;BME280;3249;42.690;23.260;2023-05-02T04:14:14;94644.97;;;11.72;100.00
6433;BME280;3249;42.690;23.260;2023-05-02T04:16:48;94644.88;;;11.60;100.00
6433;BME280;3249;42.690;23.260;2023-05-02T04:19:27;94638.31;;;11.64;100.00
6433;BME280;3249;42.690;23.260;2023-05-02T04:21:56;94645.84;;;11.59;100.00
6433;BME280;3249;42.690;23.260;2023-05-02T04:24:26;94642.91;;;11.56;100.00
6433;BME280;3249;42.690;23.260;2023-05-02T04:26:57;94643.13;;;11.54;100.00
6433;BME280;3249;42.690;23.260;2023-05-02T04:29:26;94648.88;;;11.56;100.00
6433;BME280;3249;42.690;23.260;2023-05-02T04:31:55;94644.97;;;11.72;100.00
6433;BME280;3249;42.690;23.260;2023-05-02T04:34:29;94646.38;;;11.86;100.00
6433;BME280;3249;42.690;23.260;2023-05-02T04:37:00;94635.50;;;11.84;100.00
6433;BME280;3249;42.690;23.260;2023-05-02T04:39:31;94636.88;;;11.86;100.00
6433;BME280;3249;42.690;23.260;2023-05-02T04:42:03;94641.66;;;12.01;100.00
6433;BME280;3249;42.690;23.260;2023-05-02T04:44:38;94648.84;;;11.99;100.00
6433;BME280;3249;42.690;23.260;2023-05-02T04:47:08;94648.53;;;11.89;100.00
6433;BME280;3249;42.690;23.260;2023-05-02T04:49:41;94636.25;;;11.91;100.00
6433;BME280;3249;42.690;23.260;2023-05-02T04:52:10;94642.69;;;12.00;100.00
6433;BME280;3249;42.690;23.260;2023-05-02T04:54:39;94642.53;;;11.95;100.00
6433;BME280;3249;42.690;23.260;2023-05-02T04:57:08;94641.31;;;11.97;100.00
6433;BME280;3249;42.690;23.260;2023-05-02T04:59:43;94641.59;;;12.07;100.00
6433;BME280;3249;42.690;23.260;2023-05-02T05:02:12;94642.03;;;12.04;100.00
6433;BME280;3249;42.690;23.260;2023-05-02T05:04:44;94643.53;;;12.12;100.00
6433;BME280;3249;42.690;23.260;2023-05-02T05:07:14;94647.84;;;12.18;100.00
6433;BME280;3249;42.690;23.260;2023-05-02T05:09:46;94633.63;;;12.09;100.00
6433;BME280;3249;42.690;23.260;2023-05-02T05:12:16;94644.59;;;12.22;100.00
6433;BME280;3249;42.690;23.260;2023-05-02T05:14:45;94645.94;;;12.25;100.00
6433;BME280;3249;42.690;23.260;2023-05-02T05:17:15;94646.88;;;12.30;100.00
6433;BME280;3249;42.690;23.260;2023-05-02T05:19:47;94647.75;;;12.24;100.00
6433;BME280;3249;42.690;23.260;2023-05-02T05:22:16;94652.41;;;12.34;100.00
6433;BME280;3249;42.690;23.260;2023-05-02T05:24:50;94664.13;;;12.48;100.00
6433;BME280;3249;42.690;23.260;2023-05-02T05:27:22;94658.69;;;12.56;100.00
6433;BME280;3249;42.690;23.260;2023-05-02T05:29:52;94666.59;;;12.43;100.00
6433;BME280;3249;42.690;23.260;2023-05-02T05:32:22;94665.63;;;12.55;100.00
6433;BME280;3249;42.690;23.260;2023-05-02T05:34:54;94663.72;;;12.51;100.00
6433;BME280;3249;42.690;23.260;2023-05-02T05:37:27;94665.88;;;12.54;100.00
6433;BME280;3249;42.690;23.260;2023-05-02T05:39:58;94674.09;;;12.62;100.00
6433;BME280;3249;42.690;23.260;2023-05-02T05:42:27;94662.69;;;12.70;100.00
6433;BME280;3249;42.690;23.260;2023-05-02T05:45:00;94666.53;;;12.79;100.00
6433;BME280;3249;42.690;23.260;2023-05-02T05:47:29;94670.13;;;12.78;100.00
6433;BME280;3249;42.690;23.260;2023-05-02T05:50:02;94673.63;;;12.83;100.00
6433;BME280;3249;42.690;23.260;2023-05-02T05:52:32;94671.25;;;12.82;100.00
6433;BME280;3249;42.690;23.260;2023-05-02T05:55:03;94664.34;;;12.64;100.00
6433;BME280;3249;42.690;23.260;2023-05-02T05:57:32;94677.34;;;12.87;100.00
6433;BME280;3249;42.690;23.260;2023-05-02T06:00:03;94689.03;;;12.90;100.00
6433;BME280;3249;42.690;23.260;2023-05-02T06:02:41;94675.53;;;12.88;100.00
6433;BME280;3249;42.690;23.260;2023-05-02T06:05:20;94686.78;;;13.11;100.00
6433;BME280;3249;42.690;23.260;2023-05-02T06:07:50;94696.31;;;13.11;100.00
6433;BME280;3249;42.690;23.260;2023-05-02T06:10:20;94685.69;;;13.01;100.00
6433;BME280;3249;42.690;23.260;2023-05-02T06:12:50;94684.50;;;13.03;100.00
6433;BME280;3249;42.690;23.260;2023-05-02T06:15:23;94689.25;;;13.29;100.00
6433;BME280;3249;42.690;23.260;2023-05-02T06:17:52;94685.75;;;13.24;100.00
6433;BME280;3249;42.690;23.260;2023-05-02T06:20:25;94683.66;;;13.32;98.01
6433;BME280;3249;42.690;23.260;2023-05-02T06:22:54;94690.94;;;13.24;99.53
6433;BME280;3249;42.690;23.260;2023-05-02T06:25:23;94684.78;;;13.36;97.74
6433;BME280;3249;42.690;23.260;2023-05-02T06:27:52;94675.00;;;13.27;97.55
6433;BME280;3249;42.690;23.260;2023-05-02T06:30:20;94692.28;;;13.15;100.00
6433;BME280;3249;42.690;23.260;2023-05-02T06:32:50;94690.59;;;13.20;94.62
6433;BME280;3249;42.690;23.260;2023-05-02T06:35:19;94689.47;;;13.28;94.81
6433;BME280;3249;42.690;23.260;2023-05-02T06:37:51;94690.63;;;13.32;92.84
6433;BME280;3249;42.690;23.260;2023-05-02T06:40:20;94687.69;;;13.40;92.37
6433;BME280;3249;42.690;23.260;2023-05-02T06:42:49;94688.50;;;13.52;91.41
6433;BME280;3249;42.690;23.260;2023-05-02T06:45:18;94689.09;;;13.54;90.94
6433;BME280;3249;42.690;23.260;2023-05-02T06:47:48;94687.50;;;13.64;91.45
6433;BME280;3249;42.690;23.260;2023-05-02T06:50:20;94674.59;;;13.53;90.84
6433;BME280;3249;42.690;23.260;2023-05-02T06:52:52;94688.28;;;13.88;89.62
6433;BME280;3249;42.690;23.260;2023-05-02T06:55:24;94693.81;;;13.92;87.33
6433;BME280;3249;42.690;23.260;2023-05-02T06:57:54;94691.66;;;14.00;85.19
6433;BME280;3249;42.690;23.260;2023-05-02T07:00:23;94684.91;;;14.11;84.88
6433;BME280;3249;42.690;23.260;2023-05-02T07:02:52;94681.84;;;14.14;83.60
6433;BME280;3249;42.690;23.260;2023-05-02T07:05:22;94684.38;;;13.97;83.63
6433;BME280;3249;42.690;23.260;2023-05-02T07:07:53;94689.84;;;14.12;82.14
6433;BME280;3249;42.690;23.260;2023-05-02T07:10:24;94697.38;;;14.14;82.26
6433;BME280;3249;42.690;23.260;2023-05-02T07:12:56;94695.38;;;14.16;81.24
6433;BME280;3249;42.690;23.260;2023-05-02T07:15:25;94695.38;;;14.27;84.11
6433;BME280;3249;42.690;23.260;2023-05-02T07:17:55;94697.59;;;14.47;81.38
6433;BME280;3249;42.690;23.260;2023-05-02T07:20:23;94692.91;;;14.60;78.70
6433;BME280;3249;42.690;23.260;2023-05-02T07:22:55;94701.44;;;14.72;73.33
6433;BME280;3249;42.690;23.260;2023-05-02T07:25:25;94702.09;;;14.51;72.03
6433;BME280;3249;42.690;23.260;2023-05-02T07:27:55;94703.78;;;14.57;72.37
6433;BME280;3249;42.690;23.260;2023-05-02T07:30:24;94710.06;;;14.61;72.16
6433;BME280;3249;42.690;23.260;2023-05-02T07:32:54;94701.25;;;14.62;69.81
6433;BME280;3249;42.690;23.260;2023-05-02T07:35:27;94702.38;;;14.66;69.79
6433;BME280;3249;42.690;23.260;2023-05-02T07:38:01;94709.78;;;14.74;68.73
6433;BME280;3249;42.690;23.260;2023-05-02T07:40:30;94704.00;;;14.84;66.47
6433;BME280;3249;42.690;23.260;2023-05-02T07:43:01;94708.31;;;14.78;67.29
6433;BME280;3249;42.690;23.260;2023-05-02T07:45:30;94718.91;;;14.77;68.54
6433;BME280;3249;42.690;23.260;2023-05-02T07:48:00;94682.91;;;14.64;68.08
6433;BME280;3249;42.690;23.260;2023-05-02T07:50:29;94719.13;;;15.03;67.16
6433;BME280;3249;42.690;23.260;2023-05-02T07:53:01;94716.97;;;15.12;67.72
6433;BME280;3249;42.690;23.260;2023-05-02T07:55:30;94711.94;;;15.22;66.77
6433;BME280;3249;42.690;23.260;2023-05-02T07:58:06;94722.84;;;15.35;64.29
6433;BME280;3249;42.690;23.260;2023-05-02T08:00:35;94713.56;;;15.39;67.47
6433;BME280;3249;42.690;23.260;2023-05-02T08:03:06;94714.38;;;15.40;64.06
6433;BME280;3249;42.690;23.260;2023-05-02T08:05:36;94698.50;;;15.36;65.54
6433;BME280;3249;42.690;23.260;2023-05-02T08:08:09;94715.34;;;15.67;63.54
6433;BME280;3249;42.690;23.260;2023-05-02T08:10:40;94710.69;;;15.85;65.35
6433;BME280;3249;42.690;23.260;2023-05-02T08:13:10;94718.28;;;16.08;63.44
6433;BME280;3249;42.690;23.260;2023-05-02T08:15:44;94718.00;;;16.26;60.88
6433;BME280;3249;42.690;23.260;2023-05-02T08:18:14;94724.78;;;16.27;59.18
6433;BME280;3249;42.690;23.260;2023-05-02T08:20:43;94720.00;;;16.19;58.69
6433;BME280;3249;42.690;23.260;2023-05-02T08:23:16;94711.38;;;15.97;60.58
6433;BME280;3249;42.690;23.260;2023-05-02T08:25:46;94721.25;;;16.17;58.27
6433;BME280;3249;42.690;23.260;2023-05-02T08:28:15;94678.25;;;15.88;57.07
6433;BME280;3249;42.690;23.260;2023-05-02T08:30:44;94706.13;;;15.92;62.29
6433;BME280;3249;42.690;23.260;2023-05-02T08:33:15;94715.28;;;16.16;59.72
6433;BME280;3249;42.690;23.260;2023-05-02T08:35:44;94717.66;;;16.18;59.02
6433;BME280;3249;42.690;23.260;2023-05-02T08:38:13;94720.47;;;16.16;60.58
6433;BME280;3249;42.690;23.260;2023-05-02T08:40:45;94724.72;;;16.22;60.19
6433;BME280;3249;42.690;23.260;2023-05-02T08:43:15;94722.69;;;16.24;58.80
6433;BME280;3249;42.690;23.260;2023-05-02T08:45:44;94728.72;;;16.30;58.55
6433;BME280;3249;42.690;23.260;2023-05-02T08:48:13;94720.66;;;15.93;61.96
6433;BME280;3249;42.690;23.260;2023-05-02T08:50:45;94716.22;;;16.27;60.52
6433;BME280;3249;42.690;23.260;2023-05-02T08:53:15;94715.75;;;16.13;61.93
6433;BME280;3249;42.690;23.260;2023-05-02T08:55:49;94716.81;;;16.34;59.30
6433;BME280;3249;42.690;23.260;2023-05-02T08:58:18;94712.16;;;16.36;56.53
6433;BME280;3249;42.690;23.260;2023-05-02T09:00:49;94719.22;;;16.19;55.77
6433;BME280;3249;42.690;23.260;2023-05-02T09:03:30;94710.63;;;16.18;56.60
6433;BME280;3249;42.690;23.260;2023-05-02T09:06:12;94716.59;;;16.35;55.90
6433;BME280;3249;42.690;23.260;2023-05-02T09:08:47;94706.91;;;16.47;55.53
6433;BME280;3249;42.690;23.260;2023-05-02T09:11:23;94709.22;;;16.70;55.36
6433;BME280;3249;42.690;23.260;2023-05-02T09:13:52;94711.09;;;16.96;54.19
6433;BME280;3249;42.690;23.260;2023-05-02T09:16:24;94711.34;;;17.21;52.64
6433;BME280;3249;42.690;23.260;2023-05-02T09:18:55;94694.69;;;17.22;49.68
6433;BME280;3249;42.690;23.260;2023-05-02T09:21:25;94701.09;;;17.36;49.95
6433;BME280;3249;42.690;23.260;2023-05-02T09:24:00;94708.91;;;17.68;48.06
6433;BME280;3249;42.690;23.260;2023-05-02T09:26:34;94704.78;;;17.40;46.75
6433;BME280;3249;42.690;23.260;2023-05-02T09:29:03;94708.25;;;17.51;46.58
6433;BME280;3249;42.690;23.260;2023-05-02T09:31:34;94711.69;;;17.03;50.22
6433;BME280;3249;42.690;23.260;2023-05-02T09:34:09;94704.72;;;17.35;48.33
6433;BME280;3249;42.690;23.260;2023-05-02T09:36:48;94701.38;;;17.40;46.73
6433;BME280;3249;42.690;23.260;2023-05-02T09:39:34;94690.56;;;17.84;44.81
6433;BME280;3249;42.690;23.260;2023-05-02T09:42:06;94697.91;;;17.92;45.73
6433;BME280;3249;42.690;23.260;2023-05-02T09:44:37;94700.75;;;17.91;44.95
6433;BME280;3249;42.690;23.260;2023-05-02T09:47:07;94699.09;;;18.17;44.82
6433;BME280;3249;42.690;23.260;2023-05-02T09:49:40;94698.50;;;18.41;42.38
6433;BME280;3249;42.690;23.260;2023-05-02T09:52:10;94693.28;;;18.46;40.83
6433;BME280;3249;42.690;23.260;2023-05-02T09:54:40;94699.25;;;18.37;41.53
6433;BME280;3249;42.690;23.260;2023-05-02T09:57:13;94696.34;;;18.33;40.72
6433;BME280;3249;42.690;23.260;2023-05-02T09:59:53;94680.25;;;17.63;41.68
6433;BME280;3249;42.690;23.260;2023-05-02T10:02:23;94689.94;;;17.72;41.96
6433;BME280;3249;42.690;23.260;2023-05-02T10:04:56;94675.00;;;17.94;40.89
6433;BME280;3249;42.690;23.260;2023-05-02T10:07:25;94679.38;;;18.31;40.86
6433;BME280;3249;42.690;23.260;2023-05-02T10:09:57;94681.22;;;17.93;41.36
6433;BME280;3249;42.690;23.260;2023-05-02T10:12:32;94678.16;;;18.01;40.88
6433;BME280;3249;42.690;23.260;2023-05-02T10:15:03;94671.22;;;17.75;41.35
6433;BME280;3249;42.690;23.260;2023-05-02T10:17:38;94670.44;;;18.17;40.86
6433;BME280;3249;42.690;23.260;2023-05-02T10:20:10;94667.31;;;18.15;41.64
6433;BME280;3249;42.690;23.260;2023-05-02T10:22:42;94671.03;;;18.34;39.98
6433;BME280;3249;42.690;23.260;2023-05-02T10:25:12;94663.09;;;18.08;39.33
6433;BME280;3249;42.690;23.260;2023-05-02T10:27:45;94667.84;;;18.22;39.62
6433;BME280;3249;42.690;23.260;2023-05-02T10:30:15;94667.34;;;18.20;39.47
6433;BME280;3249;42.690;23.260;2023-05-02T10:32:46;94662.63;;;18.22;39.86
6433;BME280;3249;42.690;23.260;2023-05-02T10:35:19;94653.69;;;18.49;38.30
6433;BME280;3249;42.690;23.260;2023-05-02T10:37:49;94669.94;;;18.76;36.72
6433;BME280;3249;42.690;23.260;2023-05-02T10:40:19;94641.69;;;18.48;38.27
6433;BME280;3249;42.690;23.260;2023-05-02T10:42:51;94662.13;;;18.25;38.04
6433;BME280;3249;42.690;23.260;2023-05-02T10:45:32;94651.94;;;18.18;38.12
6433;BME280;3249;42.690;23.260;2023-05-02T10:48:20;94648.38;;;17.87;38.11
6433;BME280;3249;42.690;23.260;2023-05-02T10:50:54;94626.84;;;18.02;37.86
6433;BME280;3249;42.690;23.260;2023-05-02T10:53:28;94632.44;;;17.79;38.64
6433;BME280;3249;42.690;23.260;2023-05-02T10:56:11;94631.72;;;17.88;37.99
6433;BME280;3249;42.690;23.260;2023-05-02T10:58:45;94625.28;;;18.01;38.36
6433;BME280;3249;42.690;23.260;2023-05-02T11:01:33;94646.91;;;18.01;37.05
6433;BME280;3249;42.690;23.260;2023-05-02T11:04:08;94647.50;;;17.72;36.41
6433;BME280;3249;42.690;23.260;2023-05-02T11:09:37;94646.22;;;18.21;39.68
6433;BME280;3249;42.690;23.260;2023-05-02T11:12:08;94629.06;;;18.30;36.19
6433;BME280;3249;42.690;23.260;2023-05-02T11:14:47;94626.25;;;18.42;36.53
6433;BME280;3249;42.690;23.260;2023-05-02T11:17:19;94635.00;;;18.87;36.22
6433;BME280;3249;42.690;23.260;2023-05-02T11:22:59;94599.09;;;18.33;36.15
6433;BME280;3249;42.690;23.260;2023-05-02T11:25:52;94620.13;;;18.78;37.99
6433;BME280;3249;42.690;23.260;2023-05-02T11:28:40;94631.16;;;19.15;34.60
6433;BME280;3249;42.690;23.260;2023-05-02T11:34:15;94621.00;;;19.28;36.44
6433;BME280;3249;42.690;23.260;2023-05-02T11:36:45;94622.59;;;19.39;34.98
6433;BME280;3249;42.690;23.260;2023-05-02T11:39:18;94619.97;;;19.44;35.20
6433;BME280;3249;42.690;23.260;2023-05-02T11:41:48;94617.59;;;19.63;34.52
6433;BME280;3249;42.690;23.260;2023-05-02T11:44:19;94600.38;;;19.32;34.08
6433;BME280;3249;42.690;23.260;2023-05-02T11:46:49;94620.75;;;19.55;34.05
6433;BME280;3249;42.690;23.260;2023-05-02T11:49:24;94603.50;;;19.49;34.27
6433;BME280;3249;42.690;23.260;2023-05-02T11:51:53;94608.22;;;19.47;34.91
6433;BME280;3249;42.690;23.260;2023-05-02T11:54:22;94604.78;;;19.01;34.80
6433;BME280;3249;42.690;23.260;2023-05-02T11:56:52;94607.16;;;19.33;35.51
6433;BME280;3249;42.690;23.260;2023-05-02T11:59:21;94600.88;;;19.59;35.03
6433;BME280;3249;42.690;23.260;2023-05-02T12:01:51;94600.34;;;19.72;34.75
6433;BME280;3249;42.690;23.260;2023-05-02T12:04:23;94592.50;;;19.57;34.41
6433;BME280;3249;42.690;23.260;2023-05-02T12:06:54;94590.16;;;19.15;35.73
6433;BME280;3249;42.690;23.260;2023-05-02T12:09:23;94564.28;;;18.59;35.15
6433;BME280;3249;42.690;23.260;2023-05-02T12:11:53;94578.94;;;19.05;35.13
6433;BME280;3249;42.690;23.260;2023-05-02T12:14:26;94561.72;;;18.94;36.48
6433;BME280;3249;42.690;23.260;2023-05-02T12:16:58;94574.78;;;19.39;35.47
6433;BME280;3249;42.690;23.260;2023-05-02T12:19:32;94561.75;;;19.24;35.21
6433;BME280;3249;42.690;23.260;2023-05-02T12:22:02;94571.13;;;19.15;34.91
6433;BME280;3249;42.690;23.260;2023-05-02T12:24:32;94564.34;;;19.34;35.00
6433;BME280;3249;42.690;23.260;2023-05-02T12:27:09;94562.22;;;19.16;35.34
6433;BME280;3249;42.690;23.260;2023-05-02T12:29:40;94565.34;;;19.13;35.06
6433;BME280;3249;42.690;23.260;2023-05-02T12:32:09;94541.66;;;19.24;34.81
6433;BME280;3249;42.690;23.260;2023-05-02T12:34:41;94551.31;;;19.34;36.14
6433;BME280;3249;42.690;23.260;2023-05-02T12:37:10;94547.09;;;19.33;34.61
6433;BME280;3249;42.690;23.260;2023-05-02T12:39:40;94540.84;;;19.24;34.93
6433;BME280;3249;42.690;23.260;2023-05-02T12:42:10;94542.16;;;19.31;33.88
6433;BME280;3249;42.690;23.260;2023-05-02T12:44:40;94531.97;;;19.35;35.00
6433;BME280;3249;42.690;23.260;2023-05-02T12:47:11;94530.63;;;19.52;33.87
6433;BME280;3249;42.690;23.260;2023-05-02T12:49:54;94539.28;;;19.33;33.28
6433;BME280;3249;42.690;23.260;2023-05-02T12:52:48;94522.56;;;19.29;34.39
6433;BME280;3249;42.690;23.260;2023-05-02T12:55:23;94521.25;;;19.21;34.89
6433;BME280;3249;42.690;23.260;2023-05-02T12:57:59;94515.28;;;19.06;33.41
6433;BME280;3249;42.690;23.260;2023-05-02T13:00:28;94516.59;;;19.28;33.90
6433;BME280;3249;42.690;23.260;2023-05-02T13:02:58;94491.47;;;19.42;32.32
6433;BME280;3249;42.690;23.260;2023-05-02T13:05:30;94476.63;;;19.38;31.98
6433;BME280;3249;42.690;23.260;2023-05-02T13:08:00;94516.75;;;19.67;32.40
6433;BME280;3249;42.690;23.260;2023-05-02T13:10:29;94513.16;;;19.43;31.95
6433;BME280;3249;42.690;23.260;2023-05-02T13:12:58;94510.03;;;19.36;33.19
6433;BME280;3249;42.690;23.260;2023-05-02T13:15:27;94511.84;;;19.15;33.76
6433;BME280;3249;42.690;23.260;2023-05-02T13:17:56;94512.13;;;19.09;33.48
6433;BME280;3249;42.690;23.260;2023-05-02T13:20:26;94511.88;;;19.05;33.64
6433;BME280;3249;42.690;23.260;2023-05-02T13:22:59;94507.72;;;19.24;33.58
6433;BME280;3249;42.690;23.260;2023-05-02T13:25:28;94500.31;;;19.61;32.64
6433;BME280;3249;42.690;23.260;2023-05-02T13:27:57;94510.19;;;19.74;31.85
6433;BME280;3249;42.690;23.260;2023-05-02T13:30:29;94499.25;;;19.62;32.11
6433;BME280;3249;42.690;23.260;2023-05-02T13:32:58;94514.09;;;19.82;31.97
6433;BME280;3249;42.690;23.260;2023-05-02T13:35:28;94514.84;;;19.92;31.61
6433;BME280;3249;42.690;23.260;2023-05-02T13:38:02;94496.38;;;19.64;31.69
6433;BME280;3249;42.690;23.260;2023-05-02T13:40:31;94505.81;;;19.55;31.61
6433;BME280;3249;42.690;23.260;2023-05-02T13:43:00;94509.50;;;19.39;31.71